Lake Itasca, Minnesota
Current Conditions -  °F | °C
As of 10:13 PM on Tuesday 25 Nov 2014 (Local Time) from KBJI Reporting Station
Overcast Overcast  
Wind Chill: 19°   Ceiling: 2400
Heat Index: 19°   Visibility: 10mi
Dew Point: 14°   Wind: 0mph
Humidity: 80%   Direction: NA
Pressure: 30"   Gusts: NA
Location:  47.25°N, 95.21°W
Report Text: KBJI 260413Z AUTO 00000KT 10SM OVC024 M07/M10 A3000 RMK AO2 T10711101
Loading
Personal Weather Stations






























Interactive Weather Map New forecast layout! Learn more

10-Day Weather Forecast

Advertisements
Track Severe Weather on mobile